Wetterstation Vordersexau
Wetterdaten: Woche 04.11.13 - 10.11.13 (KW45)
Datum Zeit Temp. A. Feuchte A. Luftdruck Regen Wind Richtung Taupunkt Windchill Windben
04.11.2013 00:00 4,1 C 85 % 1006,2 hPa 0,0 l/m 0,0 km/h W-SW 1,8 C 4,1 C 0,0 km/h
04.11.2013 01:00 7,9 C 76 % 1004,9 hPa 0,0 l/m 11,0 km/h W 3,9 C 4,7 C 6,1 km/h
04.11.2013 02:00 9,6 C 66 % 1003,1 hPa 0,0 l/m 24,0 km/h W 3,6 C 1,6 C 13,3 km/h
04.11.2013 03:00 10,1 C 62 % 1001,9 hPa 0,0 l/m 5,8 km/h W 3,2 C 10,1 C 3,2 km/h
04.11.2013 04:00 10,6 C 63 % 1000,4 hPa 0,0 l/m 14,9 km/h SW 3,9 C 5,9 C 8,3 km/h
04.11.2013 05:00 11,3 C 60 % 998,9 hPa 0,0 l/m 13,6 km/h W-SW 3,8 C 7,3 C 7,6 km/h
04.11.2013 06:00 11,4 C 64 % 997,4 hPa 0,0 l/m 22,7 km/h W-SW 4,8 C 4,3 C 12,6 km/h
04.11.2013 07:00 11,8 C 63 % 996,8 hPa 0,0 l/m 14,3 km/h SW 5,0 C 7,6 C 7,9 km/h
04.11.2013 08:00 9,6 C 78 % 996,4 hPa 0,0 l/m 1,3 km/h SW 6,0 C 9,6 C 0,7 km/h
04.11.2013 09:00 11,3 C 75 % 995,6 hPa 0,0 l/m 20,7 km/h W-SW 7,0 C 4,8 C 11,5 km/h
04.11.2013 10:00 11,6 C 75 % 995,1 hPa 0,0 l/m 33,7 km/h W-SW 7,3 C 2,2 C 18,7 km/h
04.11.2013 11:00 12,1 C 70 % 994,3 hPa 0,0 l/m 24,6 km/h W 6,8 C 4,8 C 13,7 km/h
04.11.2013 12:00 12,6 C 67 % 993,6 hPa 0,0 l/m 23,3 km/h S-SW 6,6 C 5,8 C 13,0 km/h
04.11.2013 13:00 12,5 C 66 % 992,8 hPa 0,0 l/m 39,5 km/h W-NW 6,3 C 2,7 C 22,0 km/h
04.11.2013 14:00 11,8 C 71 % 992,5 hPa 0,0 l/m 29,2 km/h W-NW 6,7 C 3,3 C 16,2 km/h
04.11.2013 15:00 10,9 C 77 % 992,2 hPa 0,0 l/m 20,7 km/h W 7,0 C 4,2 C 11,5 km/h
04.11.2013 16:00 11,3 C 75 % 992,0 hPa 0,0 l/m 20,7 km/h W-SW 7,0 C 4,8 C 11,5 km/h
04.11.2013 17:00 11,2 C 75 % 992,3 hPa 0,0 l/m 29,8 km/h NW 6,9 C 2,4 C 16,6 km/h
04.11.2013 18:00 11,2 C 75 % 992,9 hPa 0,0 l/m 31,1 km/h SW 6,9 C 2,1 C 17,3 km/h
04.11.2013 19:00 10,9 C 76 % 993,4 hPa 0,0 l/m 18,8 km/h NW 6,8 C 4,8 C 10,4 km/h
04.11.2013 20:00 9,9 C 82 % 994,2 hPa 0,0 l/m 29,2 km/h W-NW 7,0 C 0,7 C 16,2 km/h
04.11.2013 21:00 9,1 C 84 % 995,5 hPa 0,0 l/m 7,8 km/h NW 6,5 C 8,1 C 4,3 km/h
04.11.2013 22:00 8,8 C 83 % 996,6 hPa 0,5 l/m 1,3 km/h N-NW 6,1 C 8,8 C 0,7 km/h
04.11.2013 23:00 8,3 C 85 % 997,4 hPa 0,0 l/m 0,0 km/h NO 5,9 C 8,3 C 0,0 km/h
05.11.2013 00:00 7,8 C 84 % 998,4 hPa 0,0 l/m 0,0 km/h NO 5,3 C 7,8 C 0,0 km/h
05.11.2013 01:00 7,3 C 84 % 999,2 hPa 0,0 l/m 0,0 km/h NO 4,8 C 7,3 C 0,0 km/h
05.11.2013 02:00 6,4 C 84 % 1000,0 hPa 0,5 l/m 0,0 km/h NO 3,9 C 6,4 C 0,0 km/h
05.11.2013 03:00 6,0 C 85 % 1000,5 hPa 0,0 l/m 0,0 km/h SO 3,7 C 6,0 C 0,0 km/h
05.11.2013 04:00 5,5 C 85 % 1001,0 hPa 0,5 l/m 0,0 km/h O-SO 3,2 C 5,5 C 0,0 km/h
05.11.2013 05:00 3,7 C 85 % 1001,4 hPa 0,0 l/m 0,0 km/h O-SO 1,4 C 3,7 C 0,0 km/h
05.11.2013 06:00 2,6 C 84 % 1001,5 hPa 0,0 l/m 0,0 km/h O-SO 0,2 C 2,6 C 0,0 km/h
05.11.2013 07:00 1,8 C 83 % 1001,8 hPa 0,0 l/m 0,0 km/h O-NO -0,8 C 1,8 C 0,0 km/h
05.11.2013 08:00 3,3 C 80 % 1002,5 hPa 0,0 l/m 0,0 km/h O-SO 0,2 C 3,3 C 0,0 km/h
05.11.2013 09:00 10,9 C 83 % 1002,1 hPa 0,0 l/m 0,0 km/h NW 8,1 C 10,9 C 0,0 km/h
05.11.2013 10:00 12,4 C 67 % 1002,1 hPa 0,0 l/m 5,8 km/h W-SW 6,4 C 12,4 C 3,2 km/h
05.11.2013 11:00 9,4 C 72 % 1001,5 hPa 0,0 l/m 22,7 km/h W 4,6 C 1,7 C 12,6 km/h
05.11.2013 12:00 9,7 C 67 % 1000,0 hPa 0,0 l/m 13,0 km/h W 3,9 C 5,7 C 7,2 km/h
05.11.2013 13:00 9,3 C 70 % 999,6 hPa 0,0 l/m 1,9 km/h W-NW 4,1 C 9,3 C 1,1 km/h
05.11.2013 14:00 9,3 C 71 % 999,0 hPa 0,0 l/m 16,2 km/h W-NW 4,3 C 3,8 C 9,0 km/h
05.11.2013 15:00 8,7 C 75 % 998,6 hPa 0,0 l/m 14,9 km/h W 4,5 C 3,6 C 8,3 km/h
05.11.2013 16:00 6,7 C 75 % 998,4 hPa 0,0 l/m 24,0 km/h W-SW 2,6 C -2,3 C 13,3 km/h
05.11.2013 17:00 5,7 C 84 % 997,9 hPa 0,5 l/m 11,7 km/h W-SW 3,2 C 1,7 C 6,5 km/h
05.11.2013 18:00 5,8 C 85 % 997,0 hPa 0,5 l/m 5,8 km/h W-NW 3,5 C 5,8 C 3,2 km/h
05.11.2013 19:00 7,2 C 84 % 996,8 hPa 0,0 l/m 4,5 km/h W-NW 4,7 C 7,2 C 2,5 km/h
05.11.2013 20:00 8,1 C 83 % 997,1 hPa 0,0 l/m 19,4 km/h W-NW 5,4 C 1,0 C 10,8 km/h
05.11.2013 21:00 8,8 C 84 % 998,0 hPa 0,0 l/m 25,3 km/h W-NW 6,2 C 0,1 C 14,0 km/h
05.11.2013 22:00 9,0 C 84 % 999,6 hPa 0,0 l/m 3,9 km/h W-NW 6,4 C 9,0 C 2,2 km/h
05.11.2013 23:00 9,1 C 84 % 1000,0 hPa 0,0 l/m 5,2 km/h W-NW 6,5 C 9,1 C 2,9 km/h
06.11.2013 00:00 9,5 C 82 % 1001,5 hPa 0,0 l/m 12,3 km/h W-NW 6,6 C 5,8 C 6,8 km/h
06.11.2013 01:00 9,4 C 78 % 1001,9 hPa 0,0 l/m 17,5 km/h N-NO 5,8 C 3,4 C 9,7 km/h
06.11.2013 02:00 7,6 C 83 % 1002,8 hPa 0,5 l/m 0,0 km/h W-NW 4,9 C 7,6 C 0,0 km/h
06.11.2013 03:00 8,3 C 84 % 1002,4 hPa 0,0 l/m 20,7 km/h W 5,8 C 0,9 C 11,5 km/h
06.11.2013 04:00 8,6 C 84 % 1003,3 hPa 0,5 l/m 6,5 km/h W 6,1 C 8,5 C 3,6 km/h
06.11.2013 05:00 8,5 C 83 % 1003,3 hPa 0,0 l/m 0,0 km/h SW 5,8 C 8,5 C 0,0 km/h
06.11.2013 06:00 8,9 C 85 % 1003,6 hPa 0,5 l/m 33,0 km/h W 6,5 C -1,5 C 18,4 km/h
06.11.2013 07:00 9,2 C 85 % 1003,8 hPa 0,0 l/m 20,1 km/h NW 6,8 C 2,2 C 11,2 km/h
06.11.2013 08:00 9,2 C 84 % 1004,3 hPa 0,0 l/m 16,8 km/h SW 6,6 C 3,4 C 9,4 km/h
06.11.2013 09:00 10,5 C 85 % 1004,8 hPa 0,0 l/m 9,1 km/h W-NW 8,1 C 8,7 C 5,0 km/h
06.11.2013 10:00 11,0 C 84 % 1005,5 hPa 0,0 l/m 3,2 km/h W 8,4 C 11,0 C 1,8 km/h
06.11.2013 11:00 11,5 C 84 % 1005,6 hPa 0,0 l/m 17,5 km/h W-SW 8,9 C 6,0 C 9,7 km/h
06.11.2013 12:00 12,4 C 84 % 1005,7 hPa 0,0 l/m 10,4 km/h W-NW 9,8 C 10,0 C 5,8 km/h
06.11.2013 13:00 13,2 C 84 % 1006,4 hPa 0,0 l/m 29,8 km/h W 10,6 C 5,2 C 16,6 km/h
06.11.2013 14:00 13,9 C 82 % 1006,8 hPa 0,0 l/m 19,4 km/h W 10,9 C 8,5 C 10,8 km/h
06.11.2013 15:00 14,3 C 80 % 1007,5 hPa 0,0 l/m 18,1 km/h W 10,9 C 9,4 C 10,1 km/h
06.11.2013 16:00 13,6 C 80 % 1008,2 hPa 0,0 l/m 32,4 km/h W-SW 10,2 C 5,3 C 18,0 km/h
06.11.2013 17:00 13,3 C 80 % 1008,8 hPa 0,0 l/m 30,5 km/h W 9,9 C 5,2 C 16,9 km/h
06.11.2013 18:00 13,3 C 78 % 1009,7 hPa 0,0 l/m 23,3 km/h W 9,5 C 6,7 C 13,0 km/h
06.11.2013 19:00 13,6 C 77 % 1010,4 hPa 0,0 l/m 25,3 km/h W-SW 9,6 C 6,6 C 14,0 km/h
06.11.2013 20:00 13,5 C 79 % 1010,6 hPa 0,0 l/m 27,9 km/h W 9,9 C 6,0 C 15,5 km/h
06.11.2013 21:00 13,5 C 78 % 1011,0 hPa 0,0 l/m 10,4 km/h SW 9,7 C 11,3 C 5,8 km/h
06.11.2013 22:00 13,6 C 77 % 1011,4 hPa 0,0 l/m 15,6 km/h W 9,6 C 9,3 C 8,6 km/h
06.11.2013 23:00 13,7 C 77 % 1011,1 hPa 0,0 l/m 19,4 km/h W 9,7 C 8,2 C 10,8 km/h
07.11.2013 00:00 13,8 C 76 % 1011,2 hPa 0,0 l/m 18,8 km/h W 9,6 C 8,5 C 10,4 km/h
07.11.2013 01:00 13,8 C 79 % 1010,9 hPa 0,0 l/m 17,5 km/h W 10,2 C 8,9 C 9,7 km/h
07.11.2013 02:00 14,7 C 76 % 1011,3 hPa 0,0 l/m 24,0 km/h W 10,5 C 8,4 C 13,3 km/h
07.11.2013 03:00 14,3 C 79 % 1011,6 hPa 0,0 l/m 20,7 km/h W 10,7 C 8,7 C 11,5 km/h
07.11.2013 04:00 13,8 C 82 % 1011,4 hPa 0,0 l/m 17,5 km/h W 10,8 C 8,9 C 9,7 km/h
07.11.2013 05:00 13,9 C 81 % 1011,7 hPa 0,0 l/m 15,6 km/h NW 10,7 C 9,7 C 8,6 km/h
07.11.2013 06:00 14,2 C 79 % 1011,2 hPa 0,0 l/m 34,3 km/h W 10,6 C 5,9 C 19,1 km/h
07.11.2013 07:00 14,5 C 76 % 1011,2 hPa 0,0 l/m 29,8 km/h W 10,3 C 7,0 C 16,6 km/h
07.11.2013 08:00 14,5 C 76 % 1011,9 hPa 0,0 l/m 19,4 km/h W 10,3 C 9,3 C 10,8 km/h
07.11.2013 09:00 14,9 C 75 % 1012,3 hPa 0,0 l/m 24,0 km/h W 10,5 C 8,7 C 13,3 km/h
07.11.2013 10:00 15,8 C 74 % 1012,7 hPa 0,0 l/m 14,3 km/h W-SW 11,2 C 12,4 C 7,9 km/h
07.11.2013 11:00 14,9 C 76 % 1013,1 hPa 0,0 l/m 22,0 km/h W-NW 10,7 C 9,1 C 12,2 km/h
07.11.2013 12:00 16,4 C 74 % 1012,6 hPa 0,0 l/m 24,0 km/h W 11,8 C 10,7 C 13,3 km/h
07.11.2013 13:00 16,5 C 73 % 1012,4 hPa 0,0 l/m 12,3 km/h W 11,6 C 13,9 C 6,8 km/h
07.11.2013 14:00 16,1 C 74 % 1012,1 hPa 0,0 l/m 11,7 km/h W-SW 11,5 C 13,7 C 6,5 km/h
07.11.2013 15:00 15,9 C 72 % 1012,3 hPa 0,0 l/m 6,5 km/h W-NW 10,9 C 15,9 C 3,6 km/h
07.11.2013 16:00 15,5 C 73 % 1011,9 hPa 0,0 l/m 0,6 km/h W-NW 10,7 C 15,5 C 0,4 km/h
07.11.2013 17:00 15,5 C 73 % 1012,4 hPa 0,0 l/m 20,1 km/h W 10,7 C 10,4 C 11,2 km/h
07.11.2013 18:00 14,9 C 75 % 1012,1 hPa 0,0 l/m 1,9 km/h W 10,5 C 14,9 C 1,1 km/h
07.11.2013 19:00 15,2 C 73 % 1011,9 hPa 0,0 l/m 8,4 km/h W-SW 10,4 C 14,1 C 4,7 km/h
07.11.2013 20:00 15,6 C 71 % 1011,8 hPa 0,0 l/m 10,4 km/h SW 10,4 C 13,6 C 5,8 km/h
07.11.2013 21:00 15,3 C 71 % 1011,5 hPa 0,0 l/m 5,8 km/h W 10,1 C 15,3 C 3,2 km/h
07.11.2013 22:00 15,5 C 70 % 1011,4 hPa 0,0 l/m 7,8 km/h W-NW 10,1 C 14,7 C 4,3 km/h
07.11.2013 23:00 15,1 C 72 % 1010,9 hPa 0,0 l/m 0,0 km/h W 10,1 C 15,1 C 0,0 km/h
08.11.2013 00:00 15,2 C 72 % 1010,9 hPa 0,0 l/m 2,6 km/h S-SW 10,2 C 15,2 C 1,4 km/h
08.11.2013 01:00 15,3 C 71 % 1010,1 hPa 0,0 l/m 7,8 km/h W 10,1 C 14,5 C 4,3 km/h
08.11.2013 02:00 14,7 C 73 % 1010,1 hPa 0,0 l/m 18,1 km/h W 9,9 C 9,9 C 10,1 km/h
08.11.2013 03:00 14,8 C 74 % 1010,0 hPa 0,0 l/m 8,4 km/h W-SW 10,2 C 13,7 C 4,7 km/h
08.11.2013 04:00 14,6 C 74 % 1009,7 hPa 0,0 l/m 20,1 km/h SW 10,0 C 9,2 C 11,2 km/h
08.11.2013 05:00 14,1 C 77 % 1009,3 hPa 0,0 l/m 7,8 km/h W-SW 10,1 C 13,3 C 4,3 km/h
08.11.2013 06:00 14,6 C 74 % 1009,5 hPa 0,0 l/m 0,6 km/h W 10,0 C 14,6 C 0,4 km/h
08.11.2013 07:00 15,1 C 73 % 1009,6 hPa 0,0 l/m 16,2 km/h W-NW 10,3 C 10,9 C 9,0 km/h
08.11.2013 08:00 15,2 C 72 % 1009,3 hPa 0,0 l/m 22,7 km/h S-SO 10,2 C 9,4 C 12,6 km/h
08.11.2013 09:00 14,1 C 78 % 1009,7 hPa 0,0 l/m 0,0 km/h W-SW 10,3 C 14,1 C 0,0 km/h
08.11.2013 10:00 15,3 C 76 % 1009,5 hPa 0,0 l/m 1,9 km/h S-SW 11,1 C 15,3 C 1,1 km/h
08.11.2013 11:00 14,9 C 78 % 1009,4 hPa 0,5 l/m 3,2 km/h W-SW 11,1 C 14,9 C 1,8 km/h
08.11.2013 12:00 14,9 C 78 % 1009,0 hPa 0,0 l/m 7,1 km/h W-SW 11,1 C 14,5 C 4,0 km/h
08.11.2013 13:00 15,4 C 76 % 1008,6 hPa 0,0 l/m 2,6 km/h W 11,2 C 15,4 C 1,4 km/h
08.11.2013 14:00 15,6 C 78 % 1008,0 hPa 0,0 l/m 0,0 km/h S-SO 11,8 C 15,6 C 0,0 km/h
08.11.2013 15:00 15,2 C 82 % 1007,4 hPa 0,0 l/m 0,0 km/h W-SW 12,1 C 15,2 C 0,0 km/h
08.11.2013 16:00 14,9 C 79 % 1007,2 hPa 0,0 l/m 0,0 km/h NW 11,3 C 14,9 C 0,0 km/h
08.11.2013 17:00 13,3 C 84 % 1007,7 hPa 0,0 l/m 9,1 km/h S-SW 10,7 C 11,7 C 5,0 km/h
08.11.2013 18:00 12,7 C 84 % 1007,0 hPa 0,5 l/m 3,2 km/h W 10,1 C 12,7 C 1,8 km/h
08.11.2013 19:00 13,2 C 84 % 1006,9 hPa 0,0 l/m 0,0 km/h S-SW 10,6 C 13,2 C 0,0 km/h
08.11.2013 20:00 12,4 C 82 % 1007,0 hPa 2,1 l/m 4,5 km/h W 9,4 C 12,4 C 2,5 km/h
08.11.2013 21:00 12,5 C 77 % 1008,4 hPa 3,1 l/m 20,1 km/h S-SW 8,6 C 6,5 C 11,2 km/h
08.11.2013 22:00 11,1 C 81 % 1008,8 hPa 0,5 l/m 30,5 km/h W-SW 8,0 C 2,1 C 16,9 km/h
08.11.2013 23:00 11,3 C 84 % 1009,4 hPa 0,0 l/m 19,4 km/h W 8,7 C 5,2 C 10,8 km/h
09.11.2013 00:00 11,3 C 82 % 1009,7 hPa 0,0 l/m 22,0 km/h W-SW 8,3 C 4,4 C 12,2 km/h
09.11.2013 01:00 10,2 C 84 % 1010,8 hPa 0,0 l/m 26,6 km/h W-NW 7,6 C 1,7 C 14,8 km/h
09.11.2013 02:00 9,3 C 83 % 1011,4 hPa 0,0 l/m 16,2 km/h NW 6,6 C 3,8 C 9,0 km/h
09.11.2013 03:00 9,2 C 83 % 1011,9 hPa 0,0 l/m 8,4 km/h W 6,5 C 7,7 C 4,7 km/h
09.11.2013 04:00 9,5 C 84 % 1012,1 hPa 0,0 l/m 20,1 km/h W-NW 6,9 C 2,6 C 11,2 km/h
09.11.2013 05:00 9,2 C 85 % 1012,9 hPa 0,0 l/m 9,1 km/h W-NW 6,8 C 7,3 C 5,0 km/h
09.11.2013 06:00 8,1 C 85 % 1013,3 hPa 0,0 l/m 5,8 km/h W 5,7 C 8,1 C 3,2 km/h
09.11.2013 07:00 7,7 C 85 % 1013,9 hPa 0,0 l/m 1,9 km/h W 5,3 C 7,7 C 1,1 km/h
09.11.2013 08:00 8,4 C 84 % 1014,3 hPa 0,0 l/m 3,2 km/h W-SW 5,9 C 8,4 C 1,8 km/h
09.11.2013 09:00 9,6 C 80 % 1014,8 hPa 0,0 l/m 2,6 km/h W 6,3 C 9,6 C 1,4 km/h
09.11.2013 10:00 13,8 C 69 % 1014,4 hPa 0,0 l/m 12,3 km/h W-SW 8,2 C 10,8 C 6,8 km/h
09.11.2013 11:00 13,8 C 64 % 1014,5 hPa 0,0 l/m 14,9 km/h SW 7,1 C 9,8 C 8,3 km/h
09.11.2013 12:00 11,9 C 67 % 1014,2 hPa 0,0 l/m 35,6 km/h W 6,0 C 2,3 C 19,8 km/h
09.11.2013 13:00 12,3 C 64 % 1013,3 hPa 0,0 l/m 19,4 km/h SW 5,7 C 6,4 C 10,8 km/h
09.11.2013 14:00 12,0 C 63 % 1012,9 hPa 0,0 l/m 23,3 km/h SW 5,2 C 5,0 C 13,0 km/h
09.11.2013 15:00 13,4 C 59 % 1012,3 hPa 0,0 l/m 20,1 km/h W 5,6 C 7,7 C 11,2 km/h
09.11.2013 16:00 12,2 C 59 % 1011,6 hPa 0,0 l/m 1,3 km/h S-SO 4,4 C 12,2 C 0,7 km/h
09.11.2013 17:00 6,9 C 72 % 1010,9 hPa 0,0 l/m 1,3 km/h O-NO 2,2 C 6,9 C 0,7 km/h
09.11.2013 18:00 5,2 C 80 % 1010,4 hPa 0,0 l/m 0,0 km/h O-NO 2,0 C 5,2 C 0,0 km/h
09.11.2013 19:00 4,4 C 83 % 1009,9 hPa 0,0 l/m 0,0 km/h O-NO 1,8 C 4,4 C 0,0 km/h
09.11.2013 20:00 5,2 C 84 % 1009,3 hPa 0,0 l/m 0,0 km/h SW 2,7 C 5,2 C 0,0 km/h
09.11.2013 21:00 7,3 C 79 % 1008,5 hPa 0,0 l/m 25,3 km/h NW 3,9 C -1,9 C 14,0 km/h
09.11.2013 22:00 9,2 C 69 % 1009,0 hPa 0,0 l/m 19,4 km/h W 3,8 C 2,5 C 10,8 km/h
09.11.2013 23:00 8,5 C 73 % 1008,6 hPa 0,0 l/m 22,7 km/h W-NW 3,9 C 0,5 C 12,6 km/h
10.11.2013 00:00 8,2 C 76 % 1008,4 hPa 0,0 l/m 1,9 km/h W 4,2 C 8,2 C 1,1 km/h
10.11.2013 01:00 8,4 C 75 % 1007,7 hPa 0,0 l/m 1,9 km/h N-NW 4,2 C 8,4 C 1,1 km/h
10.11.2013 02:00 8,1 C 76 % 1006,7 hPa 0,0 l/m 17,5 km/h W 4,1 C 1,8 C 9,7 km/h
10.11.2013 03:00 8,8 C 76 % 1005,9 hPa 0,0 l/m 28,5 km/h W-SW 4,8 C -0,7 C 15,8 km/h
10.11.2013 04:00 8,3 C 79 % 1004,8 hPa 0,0 l/m 24,0 km/h W-NW 4,9 C -0,2 C 13,3 km/h
10.11.2013 05:00 7,9 C 78 % 1003,4 hPa 0,0 l/m 22,7 km/h SW 4,3 C -0,3 C 12,6 km/h
10.11.2013 06:00 6,3 C 84 % 1002,1 hPa 0,0 l/m 0,0 km/h S-SW 3,8 C 6,3 C 0,0 km/h
10.11.2013 07:00 6,1 C 84 % 1000,7 hPa 0,0 l/m 0,0 km/h NO 3,6 C 6,1 C 0,0 km/h
10.11.2013 08:00 5,9 C 84 % 998,9 hPa 0,0 l/m 3,9 km/h O-SO 3,4 C 5,9 C 2,2 km/h
10.11.2013 09:00 5,9 C 84 % 998,4 hPa 0,0 l/m 0,0 km/h NO 3,4 C 5,9 C 0,0 km/h
10.11.2013 10:00 5,6 C 83 % 998,3 hPa 0,0 l/m 0,0 km/h N 2,9 C 5,6 C 0,0 km/h
10.11.2013 11:00 5,8 C 82 % 1000,2 hPa 0,0 l/m 0,0 km/h NW 3,0 C 5,8 C 0,0 km/h
10.11.2013 12:00 6,0 C 81 % 1002,7 hPa 0,0 l/m 21,4 km/h N 3,0 C -2,4 C 11,9 km/h
10.11.2013 13:00 4,8 C 84 % 1005,3 hPa 0,0 l/m 9,7 km/h NO 2,3 C 2,1 C 5,4 km/h
10.11.2013 14:00 4,3 C 84 % 1007,2 hPa 0,0 l/m 0,0 km/h NO 1,8 C 4,3 C 0,0 km/h
10.11.2013 15:00 4,1 C 83 % 1009,2 hPa 0,0 l/m 1,3 km/h W 1,5 C 4,1 C 0,7 km/h
10.11.2013 16:00 4,1 C 83 % 1011,0 hPa 0,0 l/m 1,3 km/h W 1,5 C 4,1 C 0,7 km/h
10.11.2013 17:00 4,1 C 83 % 1012,8 hPa 0,0 l/m 1,3 km/h W 1,5 C 4,1 C 0,7 km/h
10.11.2013 18:00 4,1 C 83 % 1014,4 hPa 0,0 l/m 1,3 km/h W 1,5 C 4,1 C 0,7 km/h
10.11.2013 19:00 4,1 C 83 % 1016,1 hPa 0,0 l/m 1,3 km/h W 1,5 C 4,1 C 0,7 km/h
10.11.2013 20:00 4,1 C 83 % 1017,3 hPa 0,0 l/m 1,3 km/h W 1,5 C 4,1 C 0,7 km/h
10.11.2013 21:00 0,0 C 0 % 1018,5 hPa 0,0 l/m 0,0 km/h W -60,0 C 0,0 C 0,0 km/h
10.11.2013 22:00 0,0 C 0 % 1019,7 hPa 0,0 l/m 0,0 km/h W -60,0 C 0,0 C 0,0 km/h
10.11.2013 23:00 0,0 C 0 % 1020,5 hPa 0,0 l/m 0,0 km/h W -60,0 C 0,0 C 0,0 km/h
Min-Datum _ 10.11.13 10.11.13 04.11.13 - 04.11.13 - 10.11.13 10.11.13 04.11.13
_ Min-Zeit 21:19 21:19 16:19 - 00:19 - 21:19 12:19 00:19
Minimum _ 0,0 C 0 % 992,0 hPa - 0,0 km/h - -60,0 C -2,4 C 0,0 km/h
Max-Datum _ 07.11.13 04.11.13 10.11.13 08.11.13 04.11.13 - 08.11.13 07.11.13 04.11.13
_ Max-Zeit 13:19 00:19 23:19 21:19 13:19 - 15:19 15:19 13:19
Maximum _ 16,5 C 85 % 1020,5 hPa 3,1 l/m 39,5 km/h
W-NW
- 12,1 C 15,9 C 22,0 km/h
W-NW
Durchschnitt _ 10,4 C 76 % 1006,1 hPa #10,9 l/m 12,2 km/h W 5,6 C 7,1 C 6,8 km/h
www.sexauwetter.de